sensor_id;sensor_type;location;lat;lon;timestamp;temperature;humidity
32296;DHT22;18781;51.550;5.418;2024-03-25T00:02:16;8.90;71.60
32296;DHT22;18781;51.550;5.418;2024-03-25T00:04:42;8.90;72.10
32296;DHT22;18781;51.550;5.418;2024-03-25T00:07:07;8.90;71.60
32296;DHT22;18781;51.550;5.418;2024-03-25T00:09:33;8.90;72.20
32296;DHT22;18781;51.550;5.418;2024-03-25T00:11:59;8.90;71.60
32296;DHT22;18781;51.550;5.418;2024-03-25T00:14:24;8.80;71.50
32296;DHT22;18781;51.550;5.418;2024-03-25T00:16:50;8.80;71.50
32296;DHT22;18781;51.550;5.418;2024-03-25T00:19:16;8.80;71.50
32296;DHT22;18781;51.550;5.418;2024-03-25T00:21:41;8.80;71.60
32296;DHT22;18781;51.550;5.418;2024-03-25T00:24:08;8.80;71.50
32296;DHT22;18781;51.550;5.418;2024-03-25T00:26:33;8.70;71.50
32296;DHT22;18781;51.550;5.418;2024-03-25T00:28:59;8.70;71.60
32296;DHT22;18781;51.550;5.418;2024-03-25T00:31:24;8.70;71.60
32296;DHT22;18781;51.550;5.418;2024-03-25T00:33:50;8.70;71.60
32296;DHT22;18781;51.550;5.418;2024-03-25T00:36:16;8.70;71.60
32296;DHT22;18781;51.550;5.418;2024-03-25T00:38:42;8.60;71.60
32296;DHT22;18781;51.550;5.418;2024-03-25T00:41:08;8.60;71.70
32296;DHT22;18781;51.550;5.418;2024-03-25T00:43:34;8.60;71.70
32296;DHT22;18781;51.550;5.418;2024-03-25T00:46:00;8.50;71.70
32296;DHT22;18781;51.550;5.418;2024-03-25T00:48:25;8.50;72.30
32296;DHT22;18781;51.550;5.418;2024-03-25T00:50:51;8.50;71.70
32296;DHT22;18781;51.550;5.418;2024-03-25T00:53:17;8.50;71.80
32296;DHT22;18781;51.550;5.418;2024-03-25T00:55:43;8.50;71.80
32296;DHT22;18781;51.550;5.418;2024-03-25T00:58:09;8.50;71.90
32296;DHT22;18781;51.550;5.418;2024-03-25T01:00:35;8.40;71.90
32296;DHT22;18781;51.550;5.418;2024-03-25T01:03:01;8.40;72.00
32296;DHT22;18781;51.550;5.418;2024-03-25T01:05:26;8.40;71.90
32296;DHT22;18781;51.550;5.418;2024-03-25T01:07:53;8.30;71.90
32296;DHT22;18781;51.550;5.418;2024-03-25T01:10:18;8.30;72.00
32296;DHT22;18781;51.550;5.418;2024-03-25T01:12:44;8.30;72.00
32296;DHT22;18781;51.550;5.418;2024-03-25T01:15:10;8.30;72.00
32296;DHT22;18781;51.550;5.418;2024-03-25T01:17:36;8.30;72.00
32296;DHT22;18781;51.550;5.418;2024-03-25T01:20:02;8.30;72.00
32296;DHT22;18781;51.550;5.418;2024-03-25T01:22:30;8.20;71.90
32296;DHT22;18781;51.550;5.418;2024-03-25T01:24:56;8.20;72.10
32296;DHT22;18781;51.550;5.418;2024-03-25T01:27:22;8.20;72.20
32296;DHT22;18781;51.550;5.418;2024-03-25T01:29:48;8.20;72.20
32296;DHT22;18781;51.550;5.418;2024-03-25T01:32:13;8.20;72.30
32296;DHT22;18781;51.550;5.418;2024-03-25T01:34:39;8.10;72.30
32296;DHT22;18781;51.550;5.418;2024-03-25T01:37:05;8.10;72.30
32296;DHT22;18781;51.550;5.418;2024-03-25T01:39:31;8.10;72.30
32296;DHT22;18781;51.550;5.418;2024-03-25T01:41:57;8.10;72.40
32296;DHT22;18781;51.550;5.418;2024-03-25T01:44:22;8.10;72.50
32296;DHT22;18781;51.550;5.418;2024-03-25T01:46:48;8.00;72.50
32296;DHT22;18781;51.550;5.418;2024-03-25T01:49:14;8.00;72.50
32296;DHT22;18781;51.550;5.418;2024-03-25T01:51:40;8.00;72.60
32296;DHT22;18781;51.550;5.418;2024-03-25T01:54:07;8.00;73.10
32296;DHT22;18781;51.550;5.418;2024-03-25T01:56:35;8.00;72.80
32296;DHT22;18781;51.550;5.418;2024-03-25T01:59:02;7.90;72.70
32296;DHT22;18781;51.550;5.418;2024-03-25T02:01:28;7.90;72.70
32296;DHT22;18781;51.550;5.418;2024-03-25T02:03:55;7.90;72.80
32296;DHT22;18781;51.550;5.418;2024-03-25T02:06:22;7.90;72.80
32296;DHT22;18781;51.550;5.418;2024-03-25T02:08:49;7.90;72.80
32296;DHT22;18781;51.550;5.418;2024-03-25T02:11:16;7.90;72.80
32296;DHT22;18781;51.550;5.418;2024-03-25T02:13:42;7.90;72.80
32296;DHT22;18781;51.550;5.418;2024-03-25T02:16:08;7.80;72.80
32296;DHT22;18781;51.550;5.418;2024-03-25T02:18:34;7.80;72.90
32296;DHT22;18781;51.550;5.418;2024-03-25T02:21:00;7.80;73.00
32296;DHT22;18781;51.550;5.418;2024-03-25T02:23:26;7.80;73.00
32296;DHT22;18781;51.550;5.418;2024-03-25T02:25:53;7.80;73.00
32296;DHT22;18781;51.550;5.418;2024-03-25T02:28:19;7.80;73.10
32296;DHT22;18781;51.550;5.418;2024-03-25T02:30:45;7.80;73.20
32296;DHT22;18781;51.550;5.418;2024-03-25T02:33:11;7.80;73.20
32296;DHT22;18781;51.550;5.418;2024-03-25T02:35:38;7.70;73.20
32296;DHT22;18781;51.550;5.418;2024-03-25T02:38:05;7.70;73.30
32296;DHT22;18781;51.550;5.418;2024-03-25T02:40:31;7.70;73.20
32296;DHT22;18781;51.550;5.418;2024-03-25T02:42:57;7.70;73.20
32296;DHT22;18781;51.550;5.418;2024-03-25T02:45:23;7.70;73.20
32296;DHT22;18781;51.550;5.418;2024-03-25T02:47:50;7.70;73.30
32296;DHT22;18781;51.550;5.418;2024-03-25T02:50:16;7.70;73.30
32296;DHT22;18781;51.550;5.418;2024-03-25T02:52:42;7.70;73.30
32296;DHT22;18781;51.550;5.418;2024-03-25T02:55:08;7.60;73.40
32296;DHT22;18781;51.550;5.418;2024-03-25T02:57:33;7.60;73.40
32296;DHT22;18781;51.550;5.418;2024-03-25T02:59:59;7.60;73.40
32296;DHT22;18781;51.550;5.418;2024-03-25T03:02:25;7.60;73.40
32296;DHT22;18781;51.550;5.418;2024-03-25T03:04:50;7.60;73.40
32296;DHT22;18781;51.550;5.418;2024-03-25T03:07:16;7.60;73.40
32296;DHT22;18781;51.550;5.418;2024-03-25T03:09:42;7.60;73.40
32296;DHT22;18781;51.550;5.418;2024-03-25T03:12:08;7.60;73.50
32296;DHT22;18781;51.550;5.418;2024-03-25T03:14:33;7.60;73.40
32296;DHT22;18781;51.550;5.418;2024-03-25T03:16:59;7.60;73.40
32296;DHT22;18781;51.550;5.418;2024-03-25T03:19:25;7.60;73.40
32296;DHT22;18781;51.550;5.418;2024-03-25T03:21:51;7.50;73.40
32296;DHT22;18781;51.550;5.418;2024-03-25T03:24:17;7.50;73.40
32296;DHT22;18781;51.550;5.418;2024-03-25T03:26:44;7.50;73.50
32296;DHT22;18781;51.550;5.418;2024-03-25T03:29:09;7.50;73.60
32296;DHT22;18781;51.550;5.418;2024-03-25T03:31:36;7.50;73.50
32296;DHT22;18781;51.550;5.418;2024-03-25T03:34:02;7.50;73.60
32296;DHT22;18781;51.550;5.418;2024-03-25T03:36:27;7.50;73.50
32296;DHT22;18781;51.550;5.418;2024-03-25T03:38:53;7.50;73.50
32296;DHT22;18781;51.550;5.418;2024-03-25T03:41:19;7.40;73.50
32296;DHT22;18781;51.550;5.418;2024-03-25T03:43:45;7.40;73.60
32296;DHT22;18781;51.550;5.418;2024-03-25T03:46:11;7.40;73.70
32296;DHT22;18781;51.550;5.418;2024-03-25T03:48:37;7.40;73.70
32296;DHT22;18781;51.550;5.418;2024-03-25T03:51:07;7.40;73.80
32296;DHT22;18781;51.550;5.418;2024-03-25T03:53:34;7.40;73.80
32296;DHT22;18781;51.550;5.418;2024-03-25T03:56:02;7.40;73.90
32296;DHT22;18781;51.550;5.418;2024-03-25T03:58:28;7.30;73.80
32296;DHT22;18781;51.550;5.418;2024-03-25T04:00:54;7.30;73.80
32296;DHT22;18781;51.550;5.418;2024-03-25T04:03:20;7.30;73.80
32296;DHT22;18781;51.550;5.418;2024-03-25T04:05:46;7.30;73.90
32296;DHT22;18781;51.550;5.418;2024-03-25T04:08:12;7.30;73.90
32296;DHT22;18781;51.550;5.418;2024-03-25T04:10:38;7.30;73.90
32296;DHT22;18781;51.550;5.418;2024-03-25T04:13:04;7.30;74.00
32296;DHT22;18781;51.550;5.418;2024-03-25T04:15:33;7.30;74.00
32296;DHT22;18781;51.550;5.418;2024-03-25T04:17:58;7.30;74.00
32296;DHT22;18781;51.550;5.418;2024-03-25T04:20:26;7.30;74.00
32296;DHT22;18781;51.550;5.418;2024-03-25T04:22:52;7.20;74.00
32296;DHT22;18781;51.550;5.418;2024-03-25T04:25:17;7.20;73.90
32296;DHT22;18781;51.550;5.418;2024-03-25T04:27:43;7.30;74.00
32296;DHT22;18781;51.550;5.418;2024-03-25T04:30:10;7.20;74.50
32296;DHT22;18781;51.550;5.418;2024-03-25T04:32:40;7.20;74.00
32296;DHT22;18781;51.550;5.418;2024-03-25T04:35:06;7.20;74.00
32296;DHT22;18781;51.550;5.418;2024-03-25T04:37:32;7.20;74.00
32296;DHT22;18781;51.550;5.418;2024-03-25T04:39:58;7.20;74.60
32296;DHT22;18781;51.550;5.418;2024-03-25T04:42:24;7.20;74.10
32296;DHT22;18781;51.550;5.418;2024-03-25T04:44:50;7.20;74.10
32296;DHT22;18781;51.550;5.418;2024-03-25T04:47:19;7.20;74.00
32296;DHT22;18781;51.550;5.418;2024-03-25T04:49:45;7.20;74.00
32296;DHT22;18781;51.550;5.418;2024-03-25T04:52:12;7.10;74.00
32296;DHT22;18781;51.550;5.418;2024-03-25T04:54:44;7.10;74.00
32296;DHT22;18781;51.550;5.418;2024-03-25T04:57:09;7.10;74.00
32296;DHT22;18781;51.550;5.418;2024-03-25T04:59:35;7.10;74.00
32296;DHT22;18781;51.550;5.418;2024-03-25T05:02:01;7.10;74.00
32296;DHT22;18781;51.550;5.418;2024-03-25T05:04:27;7.10;74.00
32296;DHT22;18781;51.550;5.418;2024-03-25T05:06:52;7.00;73.90
32296;DHT22;18781;51.550;5.418;2024-03-25T05:09:18;7.00;73.90
32296;DHT22;18781;51.550;5.418;2024-03-25T05:11:43;7.00;73.90
32296;DHT22;18781;51.550;5.418;2024-03-25T05:14:09;7.00;73.90
32296;DHT22;18781;51.550;5.418;2024-03-25T05:16:35;7.00;74.00
32296;DHT22;18781;51.550;5.418;2024-03-25T05:19:02;7.00;74.00
32296;DHT22;18781;51.550;5.418;2024-03-25T05:21:27;7.00;74.10
32296;DHT22;18781;51.550;5.418;2024-03-25T05:23:53;6.90;74.00
32296;DHT22;18781;51.550;5.418;2024-03-25T05:26:18;7.00;74.20
32296;DHT22;18781;51.550;5.418;2024-03-25T05:28:44;6.90;74.10
32296;DHT22;18781;51.550;5.418;2024-03-25T05:31:10;6.90;74.10
32296;DHT22;18781;51.550;5.418;2024-03-25T05:33:36;6.90;74.20
32296;DHT22;18781;51.550;5.418;2024-03-25T05:36:03;6.90;74.20
32296;DHT22;18781;51.550;5.418;2024-03-25T05:38:28;6.90;74.20
32296;DHT22;18781;51.550;5.418;2024-03-25T05:40:54;6.90;74.30
32296;DHT22;18781;51.550;5.418;2024-03-25T05:43:20;6.90;74.30
32296;DHT22;18781;51.550;5.418;2024-03-25T05:45:53;6.80;74.30
32296;DHT22;18781;51.550;5.418;2024-03-25T05:48:25;6.90;74.50
32296;DHT22;18781;51.550;5.418;2024-03-25T05:51:01;6.80;74.30
32296;DHT22;18781;51.550;5.418;2024-03-25T05:53:28;6.80;74.40
32296;DHT22;18781;51.550;5.418;2024-03-25T05:55:54;6.80;74.30
32296;DHT22;18781;51.550;5.418;2024-03-25T05:58:20;6.80;74.40
32296;DHT22;18781;51.550;5.418;2024-03-25T06:00:49;6.80;74.40
32296;DHT22;18781;51.550;5.418;2024-03-25T06:03:16;6.80;74.60
32296;DHT22;18781;51.550;5.418;2024-03-25T06:05:42;6.80;74.60
32296;DHT22;18781;51.550;5.418;2024-03-25T06:08:08;6.80;74.60
32296;DHT22;18781;51.550;5.418;2024-03-25T06:10:41;6.80;74.70
32296;DHT22;18781;51.550;5.418;2024-03-25T06:13:07;6.80;74.80
32296;DHT22;18781;51.550;5.418;2024-03-25T06:15:32;6.80;74.80
32296;DHT22;18781;51.550;5.418;2024-03-25T06:17:58;6.80;74.90
32296;DHT22;18781;51.550;5.418;2024-03-25T06:20:24;6.80;75.00
32296;DHT22;18781;51.550;5.418;2024-03-25T06:22:49;6.80;75.00
32296;DHT22;18781;51.550;5.418;2024-03-25T06:25:16;6.80;75.10
32296;DHT22;18781;51.550;5.418;2024-03-25T06:27:43;6.80;75.10
32296;DHT22;18781;51.550;5.418;2024-03-25T06:30:10;6.80;75.10
32296;DHT22;18781;51.550;5.418;2024-03-25T06:32:54;6.80;75.20
32296;DHT22;18781;51.550;5.418;2024-03-25T06:35:38;6.80;75.80
32296;DHT22;18781;51.550;5.418;2024-03-25T06:38:04;6.90;75.30
32296;DHT22;18781;51.550;5.418;2024-03-25T06:40:30;6.80;75.30
32296;DHT22;18781;51.550;5.418;2024-03-25T06:42:56;6.90;75.50
32296;DHT22;18781;51.550;5.418;2024-03-25T06:45:22;6.90;75.60
32296;DHT22;18781;51.550;5.418;2024-03-25T06:47:48;6.90;75.70
32296;DHT22;18781;51.550;5.418;2024-03-25T06:50:14;6.90;75.80
32296;DHT22;18781;51.550;5.418;2024-03-25T06:52:40;7.00;76.00
32296;DHT22;18781;51.550;5.418;2024-03-25T06:55:06;7.00;76.10
32296;DHT22;18781;51.550;5.418;2024-03-25T06:57:31;7.00;76.10
32296;DHT22;18781;51.550;5.418;2024-03-25T06:59:57;7.00;76.40
32296;DHT22;18781;51.550;5.418;2024-03-25T07:02:25;7.10;76.60
32296;DHT22;18781;51.550;5.418;2024-03-25T07:04:51;7.10;76.70
32296;DHT22;18781;51.550;5.418;2024-03-25T07:07:16;7.20;76.80
32296;DHT22;18781;51.550;5.418;2024-03-25T07:09:42;7.20;76.90
32296;DHT22;18781;51.550;5.418;2024-03-25T07:12:08;7.30;77.10
32296;DHT22;18781;51.550;5.418;2024-03-25T07:14:34;7.30;77.10
32296;DHT22;18781;51.550;5.418;2024-03-25T07:16:59;7.40;77.30
32296;DHT22;18781;51.550;5.418;2024-03-25T07:19:25;7.40;77.30
32296;DHT22;18781;51.550;5.418;2024-03-25T07:21:50;7.50;77.40
32296;DHT22;18781;51.550;5.418;2024-03-25T07:24:16;7.50;77.50
32296;DHT22;18781;51.550;5.418;2024-03-25T07:26:42;7.60;77.60
32296;DHT22;18781;51.550;5.418;2024-03-25T07:29:07;7.70;77.60
32296;DHT22;18781;51.550;5.418;2024-03-25T07:31:34;7.80;77.60
32296;DHT22;18781;51.550;5.418;2024-03-25T07:33:59;7.80;77.70
32296;DHT22;18781;51.550;5.418;2024-03-25T07:36:25;7.90;77.80
32296;DHT22;18781;51.550;5.418;2024-03-25T07:38:50;7.90;77.80
32296;DHT22;18781;51.550;5.418;2024-03-25T07:41:16;8.00;77.70
32296;DHT22;18781;51.550;5.418;2024-03-25T07:43:41;8.10;77.80
32296;DHT22;18781;51.550;5.418;2024-03-25T07:46:07;8.10;77.80
32296;DHT22;18781;51.550;5.418;2024-03-25T07:48:32;8.20;77.90
32296;DHT22;18781;51.550;5.418;2024-03-25T07:50:58;8.30;78.00
32296;DHT22;18781;51.550;5.418;2024-03-25T07:53:24;8.30;78.20
32296;DHT22;18781;51.550;5.418;2024-03-25T07:55:49;8.40;78.30
32296;DHT22;18781;51.550;5.418;2024-03-25T07:58:16;8.50;78.30
32296;DHT22;18781;51.550;5.418;2024-03-25T08:00:42;8.50;78.90
32296;DHT22;18781;51.550;5.418;2024-03-25T08:03:08;8.60;78.30
32296;DHT22;18781;51.550;5.418;2024-03-25T08:05:33;8.70;78.30
32296;DHT22;18781;51.550;5.418;2024-03-25T08:07:59;8.80;78.30
32296;DHT22;18781;51.550;5.418;2024-03-25T08:10:24;8.80;78.20
32296;DHT22;18781;51.550;5.418;2024-03-25T08:12:50;8.80;78.20
32296;DHT22;18781;51.550;5.418;2024-03-25T08:15:15;8.90;78.30
32296;DHT22;18781;51.550;5.418;2024-03-25T08:17:41;9.00;78.30
32296;DHT22;18781;51.550;5.418;2024-03-25T08:20:07;9.00;78.50
32296;DHT22;18781;51.550;5.418;2024-03-25T08:22:34;9.10;78.40
32296;DHT22;18781;51.550;5.418;2024-03-25T08:24:59;9.20;78.30
32296;DHT22;18781;51.550;5.418;2024-03-25T08:27:25;9.20;78.80
32296;DHT22;18781;51.550;5.418;2024-03-25T08:29:50;9.30;78.30
32296;DHT22;18781;51.550;5.418;2024-03-25T08:32:18;9.30;78.20
32296;DHT22;18781;51.550;5.418;2024-03-25T08:34:44;9.40;78.30
32296;DHT22;18781;51.550;5.418;2024-03-25T08:37:10;9.50;78.40
32296;DHT22;18781;51.550;5.418;2024-03-25T08:39:36;9.50;78.30
32296;DHT22;18781;51.550;5.418;2024-03-25T08:42:02;9.60;78.20
32296;DHT22;18781;51.550;5.418;2024-03-25T08:44:28;9.60;78.20
32296;DHT22;18781;51.550;5.418;2024-03-25T08:46:53;9.70;78.20
32296;DHT22;18781;51.550;5.418;2024-03-25T08:49:19;9.70;78.10
32296;DHT22;18781;51.550;5.418;2024-03-25T08:51:45;9.80;78.10
32296;DHT22;18781;51.550;5.418;2024-03-25T08:54:11;9.90;78.20
32296;DHT22;18781;51.550;5.418;2024-03-25T08:56:36;9.90;78.20
32296;DHT22;18781;51.550;5.418;2024-03-25T08:59:02;10.00;78.30
32296;DHT22;18781;51.550;5.418;2024-03-25T09:01:28;10.10;78.50
32296;DHT22;18781;51.550;5.418;2024-03-25T09:03:54;10.20;78.30
32296;DHT22;18781;51.550;5.418;2024-03-25T09:06:20;10.30;78.30
32296;DHT22;18781;51.550;5.418;2024-03-25T09:08:46;10.30;78.20
32296;DHT22;18781;51.550;5.418;2024-03-25T09:11:30;10.40;78.20
32296;DHT22;18781;51.550;5.418;2024-03-25T09:13:56;10.50;78.30
32296;DHT22;18781;51.550;5.418;2024-03-25T09:16:21;10.60;78.30
32296;DHT22;18781;51.550;5.418;2024-03-25T09:18:47;10.70;78.10
32296;DHT22;18781;51.550;5.418;2024-03-25T09:21:12;10.80;77.90
32296;DHT22;18781;51.550;5.418;2024-03-25T09:23:38;10.90;77.80
32296;DHT22;18781;51.550;5.418;2024-03-25T09:26:04;11.00;77.80
32296;DHT22;18781;51.550;5.418;2024-03-25T09:28:30;11.10;77.70
32296;DHT22;18781;51.550;5.418;2024-03-25T09:30:55;11.20;77.50
32296;DHT22;18781;51.550;5.418;2024-03-25T09:33:21;11.30;77.30
32296;DHT22;18781;51.550;5.418;2024-03-25T09:35:47;11.40;77.00
32296;DHT22;18781;51.550;5.418;2024-03-25T09:38:13;11.50;76.70
32296;DHT22;18781;51.550;5.418;2024-03-25T09:40:42;11.50;76.50
32296;DHT22;18781;51.550;5.418;2024-03-25T09:43:20;11.60;76.10
32296;DHT22;18781;51.550;5.418;2024-03-25T09:45:49;11.70;76.60
32296;DHT22;18781;51.550;5.418;2024-03-25T09:48:17;11.80;75.90
32296;DHT22;18781;51.550;5.418;2024-03-25T09:50:45;11.80;75.50
32296;DHT22;18781;51.550;5.418;2024-03-25T09:53:10;11.90;74.70
32296;DHT22;18781;51.550;5.418;2024-03-25T09:55:37;12.00;74.90
32296;DHT22;18781;51.550;5.418;2024-03-25T09:58:03;12.00;74.70
32296;DHT22;18781;51.550;5.418;2024-03-25T10:00:30;12.10;74.40
32296;DHT22;18781;51.550;5.418;2024-03-25T10:02:56;12.20;74.50
32296;DHT22;18781;51.550;5.418;2024-03-25T10:05:21;12.20;74.00
32296;DHT22;18781;51.550;5.418;2024-03-25T10:07:47;12.30;73.80
32296;DHT22;18781;51.550;5.418;2024-03-25T10:10:13;12.40;73.60
32296;DHT22;18781;51.550;5.418;2024-03-25T10:12:38;12.50;73.40
32296;DHT22;18781;51.550;5.418;2024-03-25T10:15:05;12.50;73.30
32296;DHT22;18781;51.550;5.418;2024-03-25T10:17:31;12.50;73.10
32296;DHT22;18781;51.550;5.418;2024-03-25T10:19:57;12.60;72.80
32296;DHT22;18781;51.550;5.418;2024-03-25T10:22:22;12.70;72.50
32296;DHT22;18781;51.550;5.418;2024-03-25T10:24:49;12.80;72.60
32296;DHT22;18781;51.550;5.418;2024-03-25T10:27:19;12.80;72.50
32296;DHT22;18781;51.550;5.418;2024-03-25T10:29:54;12.90;72.40
32296;DHT22;18781;51.550;5.418;2024-03-25T10:32:23;13.00;71.50
32296;DHT22;18781;51.550;5.418;2024-03-25T10:34:54;13.10;72.30
32296;DHT22;18781;51.550;5.418;2024-03-25T10:37:20;13.10;70.60
32296;DHT22;18781;51.550;5.418;2024-03-25T10:39:49;13.20;70.00
32296;DHT22;18781;51.550;5.418;2024-03-25T10:42:19;13.30;70.20
32296;DHT22;18781;51.550;5.418;2024-03-25T10:44:45;13.30;69.40
32296;DHT22;18781;51.550;5.418;2024-03-25T10:47:25;13.40;69.90
32296;DHT22;18781;51.550;5.418;2024-03-25T10:49:59;13.40;68.60
32296;DHT22;18781;51.550;5.418;2024-03-25T10:52:27;13.50;67.30
32296;DHT22;18781;51.550;5.418;2024-03-25T10:54:55;13.60;68.30
32296;DHT22;18781;51.550;5.418;2024-03-25T10:57:21;13.60;68.00
32296;DHT22;18781;51.550;5.418;2024-03-25T10:59:48;13.70;67.70
32296;DHT22;18781;51.550;5.418;2024-03-25T11:02:14;13.80;67.40
32296;DHT22;18781;51.550;5.418;2024-03-25T11:04:41;13.90;67.00
32296;DHT22;18781;51.550;5.418;2024-03-25T11:07:12;13.90;66.70
32296;DHT22;18781;51.550;5.418;2024-03-25T11:09:39;14.00;65.20
32296;DHT22;18781;51.550;5.418;2024-03-25T11:12:05;14.00;66.00
32296;DHT22;18781;51.550;5.418;2024-03-25T11:14:31;14.10;65.10
32296;DHT22;18781;51.550;5.418;2024-03-25T11:17:01;14.20;65.20
32296;DHT22;18781;51.550;5.418;2024-03-25T11:19:28;14.20;65.10
32296;DHT22;18781;51.550;5.418;2024-03-25T11:21:55;14.30;64.70
32296;DHT22;18781;51.550;5.418;2024-03-25T11:24:31;14.30;64.20
32296;DHT22;18781;51.550;5.418;2024-03-25T11:26:56;14.40;63.90
32296;DHT22;18781;51.550;5.418;2024-03-25T11:29:22;14.40;63.00
32296;DHT22;18781;51.550;5.418;2024-03-25T11:31:49;14.40;62.60
32296;DHT22;18781;51.550;5.418;2024-03-25T11:34:15;14.50;62.00
32296;DHT22;18781;51.550;5.418;2024-03-25T11:36:41;14.50;62.70
32296;DHT22;18781;51.550;5.418;2024-03-25T11:39:07;14.60;60.80
32296;DHT22;18781;51.550;5.418;2024-03-25T11:41:41;14.60;60.70
32296;DHT22;18781;51.550;5.418;2024-03-25T11:44:11;14.60;61.30
32296;DHT22;18781;51.550;5.418;2024-03-25T11:46:40;14.70;60.10
32296;DHT22;18781;51.550;5.418;2024-03-25T11:49:07;14.70;60.10
32296;DHT22;18781;51.550;5.418;2024-03-25T11:51:34;14.70;61.10
32296;DHT22;18781;51.550;5.418;2024-03-25T11:54:02;14.70;60.60
32296;DHT22;18781;51.550;5.418;2024-03-25T11:56:30;14.80;60.70
32296;DHT22;18781;51.550;5.418;2024-03-25T11:58:56;14.80;61.00
32296;DHT22;18781;51.550;5.418;2024-03-25T12:01:22;14.90;60.80
32296;DHT22;18781;51.550;5.418;2024-03-25T12:03:47;14.90;61.20
32296;DHT22;18781;51.550;5.418;2024-03-25T12:06:13;15.00;60.70
32296;DHT22;18781;51.550;5.418;2024-03-25T12:08:38;15.00;59.40
32296;DHT22;18781;51.550;5.418;2024-03-25T12:11:24;15.10;59.70
32296;DHT22;18781;51.550;5.418;2024-03-25T12:13:50;15.10;59.10
32296;DHT22;18781;51.550;5.418;2024-03-25T12:16:17;15.10;58.80
32296;DHT22;18781;51.550;5.418;2024-03-25T12:18:42;15.20;59.30
32296;DHT22;18781;51.550;5.418;2024-03-25T12:21:08;15.20;59.30
32296;DHT22;18781;51.550;5.418;2024-03-25T12:23:36;15.30;58.40
32296;DHT22;18781;51.550;5.418;2024-03-25T12:26:03;15.30;58.00
32296;DHT22;18781;51.550;5.418;2024-03-25T12:28:31;15.30;57.10
32296;DHT22;18781;51.550;5.418;2024-03-25T12:30:57;15.30;57.80
32296;DHT22;18781;51.550;5.418;2024-03-25T12:33:25;15.30;58.30
32296;DHT22;18781;51.550;5.418;2024-03-25T12:35:52;15.30;57.90
32296;DHT22;18781;51.550;5.418;2024-03-25T12:38:32;15.30;58.00
32296;DHT22;18781;51.550;5.418;2024-03-25T12:41:11;15.40;56.20
32296;DHT22;18781;51.550;5.418;2024-03-25T12:43:43;15.40;56.50
32296;DHT22;18781;51.550;5.418;2024-03-25T12:46:09;15.40;55.20
32296;DHT22;18781;51.550;5.418;2024-03-25T12:48:36;15.40;56.40
32296;DHT22;18781;51.550;5.418;2024-03-25T12:51:02;15.40;55.90
32296;DHT22;18781;51.550;5.418;2024-03-25T12:53:28;15.40;56.00
32296;DHT22;18781;51.550;5.418;2024-03-25T12:55:53;15.50;56.00
32296;DHT22;18781;51.550;5.418;2024-03-25T12:58:19;15.50;55.90
32296;DHT22;18781;51.550;5.418;2024-03-25T13:00:45;15.50;55.20
32296;DHT22;18781;51.550;5.418;2024-03-25T13:03:10;15.60;55.80
32296;DHT22;18781;51.550;5.418;2024-03-25T13:05:36;15.70;55.80
32296;DHT22;18781;51.550;5.418;2024-03-25T13:08:02;15.70;55.60
32296;DHT22;18781;51.550;5.418;2024-03-25T13:10:31;15.70;55.40
32296;DHT22;18781;51.550;5.418;2024-03-25T13:12:57;15.70;54.30
32296;DHT22;18781;51.550;5.418;2024-03-25T13:15:23;15.70;54.60
32296;DHT22;18781;51.550;5.418;2024-03-25T13:17:48;15.80;54.50
32296;DHT22;18781;51.550;5.418;2024-03-25T13:20:14;15.80;54.70
32296;DHT22;18781;51.550;5.418;2024-03-25T13:22:40;15.80;54.00
32296;DHT22;18781;51.550;5.418;2024-03-25T13:25:06;15.80;54.10
32296;DHT22;18781;51.550;5.418;2024-03-25T13:27:32;15.90;52.00
32296;DHT22;18781;51.550;5.418;2024-03-25T13:29:58;15.90;53.40
32296;DHT22;18781;51.550;5.418;2024-03-25T13:32:24;15.90;53.10
32296;DHT22;18781;51.550;5.418;2024-03-25T13:34:50;15.90;53.60
32296;DHT22;18781;51.550;5.418;2024-03-25T13:37:15;15.90;52.90
32296;DHT22;18781;51.550;5.418;2024-03-25T13:39:41;16.00;52.30
32296;DHT22;18781;51.550;5.418;2024-03-25T13:42:07;16.10;51.70
32296;DHT22;18781;51.550;5.418;2024-03-25T13:44:32;16.10;52.80
32296;DHT22;18781;51.550;5.418;2024-03-25T13:46:58;16.10;53.00
32296;DHT22;18781;51.550;5.418;2024-03-25T13:49:23;16.20;53.20
32296;DHT22;18781;51.550;5.418;2024-03-25T13:51:56;16.20;52.10
32296;DHT22;18781;51.550;5.418;2024-03-25T13:54:24;16.30;51.50
32296;DHT22;18781;51.550;5.418;2024-03-25T13:56:51;16.30;52.30
32296;DHT22;18781;51.550;5.418;2024-03-25T13:59:16;16.40;52.10
32296;DHT22;18781;51.550;5.418;2024-03-25T14:01:42;16.40;51.20
32296;DHT22;18781;51.550;5.418;2024-03-25T14:04:08;16.40;50.90
32296;DHT22;18781;51.550;5.418;2024-03-25T14:06:33;16.40;49.90
32296;DHT22;18781;51.550;5.418;2024-03-25T14:09:02;16.40;49.90
32296;DHT22;18781;51.550;5.418;2024-03-25T14:11:30;16.40;50.10
32296;DHT22;18781;51.550;5.418;2024-03-25T14:13:56;16.40;50.00
32296;DHT22;18781;51.550;5.418;2024-03-25T14:16:21;16.40;49.90
32296;DHT22;18781;51.550;5.418;2024-03-25T14:18:47;16.40;48.70
32296;DHT22;18781;51.550;5.418;2024-03-25T14:21:13;16.40;49.10
32296;DHT22;18781;51.550;5.418;2024-03-25T14:23:38;16.40;48.90
32296;DHT22;18781;51.550;5.418;2024-03-25T14:26:09;16.40;48.50
32296;DHT22;18781;51.550;5.418;2024-03-25T14:28:34;16.40;49.20
32296;DHT22;18781;51.550;5.418;2024-03-25T14:31:00;16.40;49.20
32296;DHT22;18781;51.550;5.418;2024-03-25T14:33:25;16.30;49.80
32296;DHT22;18781;51.550;5.418;2024-03-25T14:35:51;16.30;49.90
32296;DHT22;18781;51.550;5.418;2024-03-25T14:38:17;16.30;49.90
32296;DHT22;18781;51.550;5.418;2024-03-25T14:40:42;16.30;49.70
32296;DHT22;18781;51.550;5.418;2024-03-25T14:43:08;16.30;49.90
32296;DHT22;18781;51.550;5.418;2024-03-25T14:45:33;16.30;48.70
32296;DHT22;18781;51.550;5.418;2024-03-25T14:47:59;16.30;48.70
32296;DHT22;18781;51.550;5.418;2024-03-25T14:50:25;16.30;48.30
32296;DHT22;18781;51.550;5.418;2024-03-25T14:52:50;16.30;48.10
32296;DHT22;18781;51.550;5.418;2024-03-25T14:55:16;16.20;48.10
32296;DHT22;18781;51.550;5.418;2024-03-25T14:57:41;16.20;47.40
32296;DHT22;18781;51.550;5.418;2024-03-25T15:00:08;16.30;47.40
32296;DHT22;18781;51.550;5.418;2024-03-25T15:02:34;16.30;47.60
32296;DHT22;18781;51.550;5.418;2024-03-25T15:04:59;16.30;47.20
32296;DHT22;18781;51.550;5.418;2024-03-25T15:07:26;16.20;47.80
32296;DHT22;18781;51.550;5.418;2024-03-25T15:09:52;16.30;47.70
32296;DHT22;18781;51.550;5.418;2024-03-25T15:12:18;16.30;47.70
32296;DHT22;18781;51.550;5.418;2024-03-25T15:14:43;16.30;48.20
32296;DHT22;18781;51.550;5.418;2024-03-25T15:17:09;16.30;47.70
32296;DHT22;18781;51.550;5.418;2024-03-25T15:19:35;16.30;48.10
32296;DHT22;18781;51.550;5.418;2024-03-25T15:22:00;16.30;47.30
32296;DHT22;18781;51.550;5.418;2024-03-25T15:24:26;16.30;47.40
32296;DHT22;18781;51.550;5.418;2024-03-25T15:26:51;16.30;46.30
32296;DHT22;18781;51.550;5.418;2024-03-25T15:29:17;16.30;46.80
32296;DHT22;18781;51.550;5.418;2024-03-25T15:31:43;16.30;46.30
32296;DHT22;18781;51.550;5.418;2024-03-25T15:34:08;16.30;45.70
32296;DHT22;18781;51.550;5.418;2024-03-25T15:36:34;16.30;45.60